Time;durP1;ratioP1;P1;durP2;ratioP2;P2;SDS_P1;SDS_P2;PMS_P1;PMS_P2;Temp;Humidity;BMP_temperature;BMP_pressure;BME280_temperature;BME280_humidity;BME280_pressure;Samples;Min_cycle;Max_cycle;Signal;HPM_P1;HPM_P2
2022/10/16 00:08:20;;;;;;;;;;;;;;;10.32;100.00;98186.91;7404474;19;20235;-47
2022/10/16 00:10:55;;;;;;;;;;;;;;;10.37;100.00;98190.09;7401153;19;19919;-48
2022/10/16 00:13:38;;;;;;;;;;;;;;;10.27;100.00;98191.56;7398398;19;19926;-50
2022/10/16 00:16:08;;;;;;;;;;;;;;;10.24;100.00;98191.75;7402157;19;19925;-49
2022/10/16 00:27:53;;;;;;;;;;;;;;;10.25;100.00;98185.56;7403588;19;19914;-50
2022/10/16 00:30:24;;;;;;;;;;;;;;;10.32;100.00;98186.91;7401441;19;19919;-50
2022/10/16 00:32:54;;;;;;;;;;;;;;;10.46;100.00;98194.78;7399410;19;19907;-50
2022/10/16 00:41:49;;;;;;;;;;;;;;;10.39;100.00;98183.78;7403972;19;19935;-47
2022/10/16 00:50:12;;;;;;;;;;;;;;;10.25;100.00;98188.22;7397622;19;19921;-48
2022/10/16 00:52:47;;;;;;;;;;;;;;;10.23;100.00;98190.06;7398132;19;19926;-48
2022/10/16 00:55:30;;;;;;;;;;;;;;;10.15;100.00;98200.22;7399309;19;19929;-48
2022/10/16 01:01:26;;;;;;;;;;;;;;;10.57;100.00;98200.22;7403858;19;20315;-48
2022/10/16 01:03:57;;;;;;;;;;;;;;;10.36;100.00;98209.44;7399454;19;19928;-47
2022/10/16 01:06:29;;;;;;;;;;;;;;;10.35;100.00;98207.72;7403699;19;19914;-48
2022/10/16 01:14:56;;;;;;;;;;;;;;;10.26;100.00;98209.16;7397875;19;20227;-47
2022/10/16 01:17:31;;;;;;;;;;;;;;;10.26;100.00;98222.31;7395319;19;19910;-50
2022/10/16 01:20:18;;;;;;;;;;;;;;;10.03;100.00;98211.47;7392670;19;19978;-49
2022/10/16 01:23:02;;;;;;;;;;;;;;;9.89;100.00;98212.28;7390318;19;19915;-47
2022/10/16 01:28:54;;;;;;;;;;;;;;;9.87;100.00;98208.00;7393570;19;19918;-48
2022/10/16 01:31:28;;;;;;;;;;;;;;;10.01;100.00;98215.94;7396651;19;20300;-48
2022/10/16 01:34:01;;;;;;;;;;;;;;;9.86;100.00;98222.09;7393526;19;20300;-48
2022/10/16 01:39:32;;;;;;;;;;;;;;;9.83;100.00;98203.88;7389257;19;19910;-47
2022/10/16 01:42:14;;;;;;;;;;;;;;;9.58;100.00;98214.97;7393008;19;19927;-49
2022/10/16 01:44:49;;;;;;;;;;;;;;;9.42;100.00;98215.91;7393460;19;19907;-48
2022/10/16 01:47:20;;;;;;;;;;;;;;;9.48;100.00;98212.97;7391487;19;19915;-49
2022/10/16 01:49:51;;;;;;;;;;;;;;;9.42;100.00;98208.03;7394073;19;19915;-48
2022/10/16 01:52:24;;;;;;;;;;;;;;;9.52;100.00;98217.94;7398470;19;20299;-47
2022/10/16 01:57:52;;;;;;;;;;;;;;;9.43;100.00;98209.72;7398973;19;19918;-47
2022/10/16 02:00:26;;;;;;;;;;;;;;;9.81;100.00;98211.84;7396626;19;19978;-48
2022/10/16 02:03:04;;;;;;;;;;;;;;;9.84;100.00;98213.47;7396717;19;19978;-48
2022/10/16 02:05:48;;;;;;;;;;;;;;;9.71;100.00;98210.72;7394547;19;20307;-48
2022/10/16 02:08:18;;;;;;;;;;;;;;;9.71;100.00;98213.34;7399545;19;19982;-47
2022/10/16 02:14:06;;;;;;;;;;;;;;;9.92;100.00;98219.13;7392444;19;19909;-49
2022/10/16 02:16:58;;;;;;;;;;;;;;;9.87;100.00;98215.91;7396695;19;19921;-55
2022/10/16 02:19:27;;;;;;;;;;;;;;;10.03;100.00;98228.06;7392722;19;20244;-48
2022/10/16 02:22:04;;;;;;;;;;;;;;;10.28;100.00;98227.44;7392641;19;21778;-48
2022/10/16 02:24:52;;;;;;;;;;;;;;;10.07;100.00;98223.47;7398699;19;20303;-48
2022/10/16 02:27:50;;;;;;;;;;;;;;;10.21;100.00;98218.25;7394879;19;19925;-48
2022/10/16 02:30:37;;;;;;;;;;;;;;;10.35;100.00;98220.88;7394308;19;19918;-48
2022/10/16 02:33:21;;;;;;;;;;;;;;;10.02;100.00;98222.88;7395469;19;19914;-49
2022/10/16 02:36:01;;;;;;;;;;;;;;;10.07;100.00;98226.09;7391992;19;20009;-47
2022/10/16 02:38:31;;;;;;;;;;;;;;;10.01;100.00;98227.31;7402370;19;20260;-48
2022/10/16 02:41:04;;;;;;;;;;;;;;;10.00;100.00;98232.66;7404534;19;19906;-48
2022/10/16 02:43:34;;;;;;;;;;;;;;;10.02;100.00;98234.25;7400936;19;19918;-54
2022/10/16 02:46:04;;;;;;;;;;;;;;;10.01;100.00;98231.72;7400256;19;20367;-49
2022/10/16 02:48:36;;;;;;;;;;;;;;;9.85;100.00;98231.75;7398407;19;19930;-48
2022/10/16 02:51:27;;;;;;;;;;;;;;;10.25;100.00;98233.72;7397603;19;19948;-50
2022/10/16 02:57:09;;;;;;;;;;;;;;;9.92;100.00;98234.91;7396935;19;19917;-58
2022/10/16 02:59:44;;;;;;;;;;;;;;;9.83;100.00;98232.78;7402551;19;19914;-50
2022/10/16 03:02:15;;;;;;;;;;;;;;;9.88;100.00;98233.38;7404682;19;19917;-47
2022/10/16 03:04:47;;;;;;;;;;;;;;;10.14;100.00;98241.41;7401596;19;19918;-48
2022/10/16 03:07:17;;;;;;;;;;;;;;;9.96;100.00;98234.59;7397470;19;19925;-48
2022/10/16 03:10:02;;;;;;;;;;;;;;;10.07;100.00;98244.50;7399960;19;19923;-48
2022/10/16 03:12:32;;;;;;;;;;;;;;;10.02;100.00;98246.53;7399155;19;19915;-49
2022/10/16 03:15:02;;;;;;;;;;;;;;;10.19;100.00;98249.91;7402128;19;19947;-47
2022/10/16 03:17:31;;;;;;;;;;;;;;;9.88;100.00;98244.72;7398372;19;19919;-51
2022/10/16 03:20:06;;;;;;;;;;;;;;;9.84;100.00;98261.59;7403794;19;19918;-48
2022/10/16 03:22:44;;;;;;;;;;;;;;;10.20;100.00;98266.50;7394246;19;19978;-48
2022/10/16 03:25:22;;;;;;;;;;;;;;;10.00;100.00;98253.69;7398098;19;20339;-47
2022/10/16 03:27:54;;;;;;;;;;;;;;;9.73;100.00;98256.13;7404456;19;20279;-50
2022/10/16 03:30:32;;;;;;;;;;;;;;;9.77;100.00;98259.44;7400797;19;19918;-48
2022/10/16 03:33:04;;;;;;;;;;;;;;;9.77;100.00;98262.06;7402157;19;19946;-48
2022/10/16 03:35:36;;;;;;;;;;;;;;;9.78;100.00;98258.50;7400305;19;19911;-51
2022/10/16 03:38:07;;;;;;;;;;;;;;;10.03;100.00;98256.16;7396131;19;20318;-48
2022/10/16 03:40:36;;;;;;;;;;;;;;;9.73;100.00;98263.16;7403387;19;19982;-48
2022/10/16 03:43:14;;;;;;;;;;;;;;;9.80;100.00;98267.13;7399424;19;19926;-49
2022/10/16 03:45:46;;;;;;;;;;;;;;;9.78;100.00;98269.00;7400399;19;19923;-47
2022/10/16 03:48:18;;;;;;;;;;;;;;;9.73;100.00;98276.31;7401527;19;19930;-48
2022/10/16 03:50:51;;;;;;;;;;;;;;;9.96;100.00;98279.28;7401025;19;20314;-48
2022/10/16 03:53:21;;;;;;;;;;;;;;;9.94;100.00;98275.06;7399953;19;19915;-48
2022/10/16 03:55:51;;;;;;;;;;;;;;;10.00;100.00;98278.19;7399760;19;19915;-48
2022/10/16 03:58:21;;;;;;;;;;;;;;;10.00;100.00;98274.72;7397720;19;19918;-47
2022/10/16 04:00:50;;;;;;;;;;;;;;;9.83;100.00;98273.06;7398980;19;19998;-50
2022/10/16 04:03:21;;;;;;;;;;;;;;;9.84;100.00;98269.50;7399493;19;19919;-49
2022/10/16 04:05:53;;;;;;;;;;;;;;;10.09;100.00;98268.91;7400090;19;19921;-49
2022/10/16 04:08:27;;;;;;;;;;;;;;;10.13;100.00;98273.91;7400285;19;19929;-48
2022/10/16 04:10:57;;;;;;;;;;;;;;;9.89;100.00;98282.38;7403998;19;19922;-48
2022/10/16 04:13:30;;;;;;;;;;;;;;;10.29;100.00;98272.06;7395141;19;19938;-47
2022/10/16 04:16:00;;;;;;;;;;;;;;;10.21;100.00;98279.56;7399091;19;20367;-48
2022/10/16 04:18:35;;;;;;;;;;;;;;;10.48;100.00;98284.97;7398705;19;19986;-50
2022/10/16 04:21:20;;;;;;;;;;;;;;;10.24;100.00;98279.38;7396301;19;19994;-47
2022/10/16 04:23:53;;;;;;;;;;;;;;;10.10;100.00;98275.88;7394203;19;19947;-47
2022/10/16 04:26:46;;;;;;;;;;;;;;;10.51;100.00;98277.72;7394069;19;19919;-47
2022/10/16 04:29:29;;;;;;;;;;;;;;;10.25;100.00;98277.59;7399274;19;19914;-48
2022/10/16 04:31:59;;;;;;;;;;;;;;;10.03;100.00;98282.44;7398733;19;19915;-47
2022/10/16 04:34:29;;;;;;;;;;;;;;;10.09;100.00;98280.28;7400140;19;19931;-51
2022/10/16 04:37:04;;;;;;;;;;;;;;;10.01;100.00;98285.13;7396366;19;20316;-48
2022/10/16 04:58:25;;;;;;;;;;;;;;;10.08;100.00;98283.00;7400318;19;20259;-50
2022/10/16 05:04:02;;;;;;;;;;;;;;;9.84;100.00;98287.06;7397958;19;19921;-48
2022/10/16 05:12:51;;;;;;;;;;;;;;;9.87;100.00;98284.22;7395841;19;19914;-50
2022/10/16 05:15:24;;;;;;;;;;;;;;;10.02;100.00;98280.72;7378670;19;19930;-48
2022/10/16 05:17:55;;;;;;;;;;;;;;;9.96;100.00;98288.97;7388289;19;19922;-48
2022/10/16 05:20:29;;;;;;;;;;;;;;;10.34;100.00;98279.69;7389736;19;19914;-48
2022/10/16 05:22:59;;;;;;;;;;;;;;;10.09;100.00;98282.06;7389640;19;19919;-50
2022/10/16 05:25:28;;;;;;;;;;;;;;;9.91;100.00;98280.47;7390340;19;19914;-48
2022/10/16 05:27:58;;;;;;;;;;;;;;;10.02;100.00;98278.94;7385019;19;19914;-57
2022/10/16 05:30:30;;;;;;;;;;;;;;;10.12;100.00;98269.59;7389053;19;20311;-50
2022/10/16 05:33:02;;;;;;;;;;;;;;;10.20;100.00;98269.97;7398017;19;19914;-47
2022/10/16 05:38:44;;;;;;;;;;;;;;;10.36;100.00;98280.44;7398205;19;20235;-52
2022/10/16 05:41:46;;;;;;;;;;;;;;;10.68;100.00;98295.16;7398478;19;19934;-48
2022/10/16 05:44:17;;;;;;;;;;;;;;;10.62;100.00;98296.34;7398161;19;19907;-48
2022/10/16 05:59:17;;;;;;;;;;;;;;;11.13;100.00;98321.34;7395307;19;20303;-48
2022/10/16 06:01:54;;;;;;;;;;;;;;;11.28;100.00;98328.28;7396210;19;19974;-47
2022/10/16 06:04:24;;;;;;;;;;;;;;;11.08;100.00;98326.88;7397003;19;19926;-47
2022/10/16 06:06:53;;;;;;;;;;;;;;;11.29;100.00;98320.28;7397391;19;20208;-46
2022/10/16 06:16:04;;;;;;;;;;;;;;;11.29;100.00;98329.97;7408219;19;19978;-47
2022/10/16 06:18:35;;;;;;;;;;;;;;;11.47;100.00;98338.50;7406666;19;19911;-48
2022/10/16 06:21:12;;;;;;;;;;;;;;;11.43;100.00;98338.69;7401674;19;19918;-50
2022/10/16 06:23:42;;;;;;;;;;;;;;;11.63;100.00;98350.63;7406969;19;19915;-49
2022/10/16 06:29:28;;;;;;;;;;;;;;;11.53;100.00;98349.50;7393445;19;19938;-48
2022/10/16 06:32:00;;;;;;;;;;;;;;;11.58;100.00;98357.13;7399560;19;19925;-51
2022/10/16 06:34:29;;;;;;;;;;;;;;;11.54;100.00;98356.47;7402805;19;19947;-50
2022/10/16 06:39:45;;;;;;;;;;;;;;;12.00;100.00;98355.25;7401252;19;19974;-50
2022/10/16 06:42:15;;;;;;;;;;;;;;;12.02;100.00;98355.16;7402134;19;19939;-48
2022/10/16 06:44:44;;;;;;;;;;;;;;;11.87;100.00;98361.38;7397168;19;19925;-48
2022/10/16 06:47:16;;;;;;;;;;;;;;;11.89;100.00;98362.97;7389531;19;19910;-47
2022/10/16 06:49:45;;;;;;;;;;;;;;;11.69;100.00;98362.56;7402567;19;19939;-46
2022/10/16 06:52:14;;;;;;;;;;;;;;;12.19;100.00;98366.28;7402789;19;19911;-51
2022/10/16 06:54:44;;;;;;;;;;;;;;;12.03;100.00;98370.03;7389078;19;19926;-51
2022/10/16 06:57:13;;;;;;;;;;;;;;;12.44;100.00;98362.88;7390612;19;20285;-47
2022/10/16 06:59:42;;;;;;;;;;;;;;;12.40;100.00;98370.19;7393613;19;19916;-50
2022/10/16 07:02:11;;;;;;;;;;;;;;;12.37;100.00;98375.66;7386918;19;19918;-50
2022/10/16 07:04:43;;;;;;;;;;;;;;;12.56;100.00;98372.66;7388126;19;20816;-46
2022/10/16 07:07:12;;;;;;;;;;;;;;;12.66;100.00;98363.16;7391874;19;19922;-48
2022/10/16 07:09:41;;;;;;;;;;;;;;;12.65;100.00;98366.75;7384601;19;20563;-50
2022/10/16 07:12:10;;;;;;;;;;;;;;;12.83;100.00;98373.41;7402640;19;19982;-49
2022/10/16 07:14:52;;;;;;;;;;;;;;;12.79;100.00;98372.81;7403445;19;19926;-50
2022/10/16 07:23:53;;;;;;;;;;;;;;;13.22;100.00;98379.50;7406750;19;20017;-50
2022/10/16 07:32:34;;;;;;;;;;;;;;;12.96;100.00;98390.97;7388051;19;19914;-48
2022/10/16 07:35:03;;;;;;;;;;;;;;;13.06;100.00;98384.16;7390246;19;19910;-48
2022/10/16 07:37:32;;;;;;;;;;;;;;;13.24;100.00;98388.16;7385453;19;19915;-48
2022/10/16 07:40:04;;;;;;;;;;;;;;;13.15;100.00;98396.72;7391121;19;19932;-48
2022/10/16 07:42:33;;;;;;;;;;;;;;;13.44;100.00;98390.25;7392970;19;19927;-48
2022/10/16 07:45:03;;;;;;;;;;;;;;;13.21;100.00;98396.31;7385520;19;19922;-53
2022/10/16 07:47:31;;;;;;;;;;;;;;;13.39;100.00;98397.66;7392395;19;19940;-50
2022/10/16 07:50:00;;;;;;;;;;;;;;;13.67;100.00;98405.38;7391191;19;19914;-48
2022/10/16 07:52:29;;;;;;;;;;;;;;;13.36;100.00;98408.44;7387619;19;20003;-48
2022/10/16 07:54:58;;;;;;;;;;;;;;;13.51;100.00;98399.44;7400345;19;19911;-53
2022/10/16 08:06:20;;;;;;;;;;;;;;;13.74;100.00;98411.06;7399833;19;20247;-51
2022/10/16 08:08:50;;;;;;;;;;;;;;;13.88;100.00;98418.88;7401117;19;19911;-49
2022/10/16 08:14:23;;;;;;;;;;;;;;;13.93;100.00;98424.66;7401196;19;19931;-50
2022/10/16 08:19:56;;;;;;;;;;;;;;;14.08;100.00;98424.41;7400985;19;19992;-49
2022/10/16 08:25:41;;;;;;;;;;;;;;;14.17;100.00;98430.84;7388350;19;19918;-49
2022/10/16 08:28:12;;;;;;;;;;;;;;;14.36;100.00;98418.00;7386092;19;20232;-52
2022/10/16 08:30:41;;;;;;;;;;;;;;;14.34;100.00;98404.88;7387298;19;19910;-49
2022/10/16 08:33:11;;;;;;;;;;;;;;;14.71;100.00;98407.41;7384799;19;19915;-50
2022/10/16 08:35:40;;;;;;;;;;;;;;;14.92;100.00;98408.47;7381059;19;20332;-53
2022/10/16 08:38:10;;;;;;;;;;;;;;;15.10;100.00;98404.41;7389034;19;19938;-51
2022/10/16 08:40:46;;;;;;;;;;;;;;;15.13;100.00;98410.38;7386622;19;19910;-51
2022/10/16 08:43:32;;;;;;;;;;;;;;;15.36;100.00;98403.28;7388608;19;19919;-49
2022/10/16 08:46:18;;;;;;;;;;;;;;;15.41;100.00;98409.06;7383974;19;20568;-53
2022/10/16 08:48:49;;;;;;;;;;;;;;;15.40;100.00;98421.50;7391309;19;19935;-55
2022/10/16 08:51:23;;;;;;;;;;;;;;;15.46;100.00;98415.69;7396160;19;20256;-52
2022/10/16 08:59:49;;;;;;;;;;;;;;;15.22;100.00;98427.34;7399185;19;19948;-50
2022/10/16 09:08:55;;;;;;;;;;;;;;;15.08;100.00;98435.50;7398931;19;19997;-50
2022/10/16 09:11:52;;;;;;;;;;;;;;;15.21;100.00;98442.44;7396003;19;19921;-49
2022/10/16 09:17:41;;;;;;;;;;;;;;;15.32;100.00;98444.25;7394621;19;19922;-49
2022/10/16 09:23:37;;;;;;;;;;;;;;;15.84;100.00;98441.88;7394992;19;19917;-51
2022/10/16 09:29:01;;;;;;;;;;;;;;;15.62;100.00;98441.88;7394807;19;19919;-51
2022/10/16 09:31:30;;;;;;;;;;;;;;;15.76;100.00;98441.66;7394853;19;19934;-49
2022/10/16 09:50:06;;;;;;;;;;;;;;;15.68;100.00;98471.41;7401490;19;19911;-52
2022/10/16 09:53:08;;;;;;;;;;;;;;;15.87;100.00;98462.88;7397761;19;19922;-51
2022/10/16 10:04:42;;;;;;;;;;;;;;;15.92;100.00;98460.69;7398236;19;19917;-53
2022/10/16 10:10:40;;;;;;;;;;;;;;;16.35;100.00;98461.66;7398824;19;19936;-50
2022/10/16 10:16:32;;;;;;;;;;;;;;;16.28;100.00;98458.66;7393609;19;19935;-52
2022/10/16 10:40:48;;;;;;;;;;;;;;;16.50;100.00;98447.13;7392680;19;20324;-49
2022/10/16 10:43:23;;;;;;;;;;;;;;;16.51;100.00;98449.66;7393344;19;20366;-51
2022/10/16 10:45:56;;;;;;;;;;;;;;;16.33;100.00;98455.59;7380376;19;20541;-54
2022/10/16 10:48:36;;;;;;;;;;;;;;;16.27;100.00;98453.47;7379007;19;19930;-49
2022/10/16 10:51:10;;;;;;;;;;;;;;;16.19;100.00;98454.06;7383479;19;20363;-50
2022/10/16 11:06:01;;;;;;;;;;;;;;;15.97;100.00;98437.31;7397133;19;19954;-50
2022/10/16 11:11:45;;;;;;;;;;;;;;;16.22;100.00;98448.53;7399536;19;19921;-49
2022/10/16 11:14:21;;;;;;;;;;;;;;;16.05;100.00;98448.19;7399710;19;19919;-53
2022/10/16 11:17:08;;;;;;;;;;;;;;;15.98;100.00;98453.13;7396746;19;19995;-53
2022/10/16 11:19:42;;;;;;;;;;;;;;;16.10;100.00;98459.28;7396136;19;19915;-50
2022/10/16 11:22:15;;;;;;;;;;;;;;;16.04;100.00;98463.22;7391535;19;20010;-50
2022/10/16 11:24:56;;;;;;;;;;;;;;;16.18;100.00;98463.00;7391812;19;19943;-50
2022/10/16 11:27:32;;;;;;;;;;;;;;;16.11;100.00;98461.81;7403119;19;19923;-50
2022/10/16 11:30:17;;;;;;;;;;;;;;;15.89;100.00;98460.97;7403766;19;19918;-51
2022/10/16 11:32:53;;;;;;;;;;;;;;;16.00;100.00;98458.31;7404121;19;19937;-51
2022/10/16 11:35:26;;;;;;;;;;;;;;;16.13;100.00;98453.72;7405369;19;20233;-49
2022/10/16 11:44:15;;;;;;;;;;;;;;;16.30;100.00;98458.53;7406348;19;19939;-51
2022/10/16 11:46:51;;;;;;;;;;;;;;;16.43;100.00;98461.88;7401841;19;20265;-50
2022/10/16 11:53:00;;;;;;;;;;;;;;;16.33;100.00;98460.91;7400814;19;20245;-54
2022/10/16 11:55:33;;;;;;;;;;;;;;;16.12;100.00;98458.19;7397863;19;19921;-49
2022/10/16 11:58:07;;;;;;;;;;;;;;;16.19;100.00;98455.91;7397950;19;19944;-52
2022/10/16 12:00:41;;;;;;;;;;;;;;;16.13;100.00;98459.03;7400718;19;19941;-50
2022/10/16 12:03:26;;;;;;;;;;;;;;;16.25;100.00;98463.34;7391503;19;19922;-52
2022/10/16 12:06:01;;;;;;;;;;;;;;;16.33;100.00;98461.78;7391978;19;20056;-49
2022/10/16 12:08:31;;;;;;;;;;;;;;;16.22;100.00;98459.13;7389082;19;19915;-52
2022/10/16 12:11:14;;;;;;;;;;;;;;;16.90;100.00;98449.06;7394408;19;19986;-51
2022/10/16 12:13:47;;;;;;;;;;;;;;;16.62;100.00;98457.59;7392700;19;20364;-50
2022/10/16 12:16:24;;;;;;;;;;;;;;;16.67;100.00;98457.22;7391707;19;19939;-49
2022/10/16 12:19:10;;;;;;;;;;;;;;;16.61;100.00;98461.25;7390866;19;19919;-48
2022/10/16 12:21:40;;;;;;;;;;;;;;;16.82;100.00;98474.56;7393514;19;19925;-48
2022/10/16 12:24:09;;;;;;;;;;;;;;;16.75;100.00;98470.72;7391470;19;20387;-50
2022/10/16 12:26:41;;;;;;;;;;;;;;;16.74;100.00;98472.53;7390520;19;19952;-49
2022/10/16 12:29:25;;;;;;;;;;;;;;;16.63;100.00;98469.91;7394861;19;19907;-49
2022/10/16 12:31:55;;;;;;;;;;;;;;;16.72;100.00;98468.31;7389104;19;20342;-50
2022/10/16 12:34:32;;;;;;;;;;;;;;;16.62;100.00;98470.88;7392714;19;19915;-54
2022/10/16 12:37:12;;;;;;;;;;;;;;;16.71;100.00;98471.94;7402121;19;19936;-52
2022/10/16 12:39:43;;;;;;;;;;;;;;;16.71;100.00;98467.47;7387312;19;19918;-53
2022/10/16 12:42:24;;;;;;;;;;;;;;;16.56;100.00;98468.72;7397127;19;19915;-51
2022/10/16 12:47:56;;;;;;;;;;;;;;;16.70;100.00;98470.28;7388742;19;20246;-53
2022/10/16 12:50:31;;;;;;;;;;;;;;;16.58;100.00;98466.78;7392653;19;20345;-56
2022/10/16 12:53:01;;;;;;;;;;;;;;;16.72;100.00;98466.50;7386124;19;19922;-49
2022/10/16 12:55:36;;;;;;;;;;;;;;;16.63;100.00;98469.09;7399120;19;19931;-49
2022/10/16 12:58:38;;;;;;;;;;;;;;;16.68;100.00;98469.53;7396181;19;19945;-51
2022/10/16 13:01:13;;;;;;;;;;;;;;;16.70;100.00;98473.75;7395827;19;19923;-50
2022/10/16 13:09:53;;;;;;;;;;;;;;;16.60;100.00;98485.28;7399250;19;20276;-52
2022/10/16 13:15:38;;;;;;;;;;;;;;;16.84;100.00;98477.94;7394477;19;19925;-53
2022/10/16 13:18:13;;;;;;;;;;;;;;;17.09;100.00;98477.63;7394773;19;20242;-50
2022/10/16 13:21:03;;;;;;;;;;;;;;;17.05;100.00;98477.06;7396214;19;19959;-51
2022/10/16 13:23:36;;;;;;;;;;;;;;;17.27;100.00;98474.28;7383268;19;20330;-48
2022/10/16 13:29:15;;;;;;;;;;;;;;;16.98;100.00;98475.00;7394729;19;19927;-53
2022/10/16 13:34:54;;;;;;;;;;;;;;;16.97;100.00;98484.78;7395686;19;19918;-49
2022/10/16 13:37:23;;;;;;;;;;;;;;;16.92;100.00;98480.78;7395377;19;20351;-50
2022/10/16 13:39:53;;;;;;;;;;;;;;;16.96;100.00;98482.28;7387673;19;20344;-51
2022/10/16 13:42:29;;;;;;;;;;;;;;;16.91;100.00;98489.75;7384174;19;19927;-47
2022/10/16 13:44:58;;;;;;;;;;;;;;;16.90;100.00;98482.75;7373790;19;19929;-52
2022/10/16 13:47:29;;;;;;;;;;;;;;;16.80;100.00;98490.63;7377620;19;19943;-55
2022/10/16 13:50:06;;;;;;;;;;;;;;;16.92;100.00;98486.09;7379222;19;20014;-54
2022/10/16 13:52:35;;;;;;;;;;;;;;;16.94;100.00;98484.19;7368747;19;19919;-51
2022/10/16 13:55:04;;;;;;;;;;;;;;;16.78;100.00;98483.78;7384142;19;19986;-48
2022/10/16 13:57:36;;;;;;;;;;;;;;;17.01;100.00;98485.41;7380179;19;20223;-49
2022/10/16 14:00:05;;;;;;;;;;;;;;;16.89;100.00;98486.38;7383232;19;19956;-52
2022/10/16 14:02:36;;;;;;;;;;;;;;;16.93;100.00;98491.31;7380341;19;20404;-55
2022/10/16 14:05:07;;;;;;;;;;;;;;;17.06;100.00;98480.53;7382223;19;19922;-49
2022/10/16 14:07:37;;;;;;;;;;;;;;;16.90;100.00;98486.25;7384016;19;20265;-53
2022/10/16 14:10:07;;;;;;;;;;;;;;;17.01;100.00;98491.56;7382649;19;19915;-50
2022/10/16 14:12:39;;;;;;;;;;;;;;;16.85;100.00;98492.94;7385300;19;19939;-47
2022/10/16 14:15:19;;;;;;;;;;;;;;;16.82;100.00;98485.22;7383072;19;19911;-56
2022/10/16 14:17:52;;;;;;;;;;;;;;;16.49;100.00;98495.91;7385205;19;19919;-48
2022/10/16 14:20:22;;;;;;;;;;;;;;;16.65;100.00;98483.06;7384732;19;20228;-49
2022/10/16 14:23:00;;;;;;;;;;;;;;;16.55;100.00;98490.94;7381315;19;19935;-49
2022/10/16 14:25:30;;;;;;;;;;;;;;;16.68;100.00;98473.06;7384065;19;19923;-49
2022/10/16 14:28:04;;;;;;;;;;;;;;;16.54;100.00;98480.44;7377291;19;19946;-51
2022/10/16 14:30:35;;;;;;;;;;;;;;;16.61;100.00;98471.88;7386628;19;19930;-48
2022/10/16 14:33:05;;;;;;;;;;;;;;;16.61;100.00;98489.59;7389567;19;20236;-50
2022/10/16 14:35:36;;;;;;;;;;;;;;;16.80;100.00;98501.28;7386192;19;19915;-49
2022/10/16 14:38:07;;;;;;;;;;;;;;;16.48;100.00;98511.00;7392394;19;19918;-49
2022/10/16 14:40:39;;;;;;;;;;;;;;;16.58;100.00;98509.31;7388734;19;19954;-48
2022/10/16 14:43:23;;;;;;;;;;;;;;;16.51;100.00;98510.75;7385484;19;19930;-54
2022/10/16 14:45:54;;;;;;;;;;;;;;;16.51;100.00;98523.19;7392779;19;19935;-48
2022/10/16 14:48:24;;;;;;;;;;;;;;;16.68;100.00;98530.66;7384383;19;19925;-48
2022/10/16 14:50:53;;;;;;;;;;;;;;;16.45;100.00;98521.03;7391251;19;19919;-47
2022/10/16 14:53:22;;;;;;;;;;;;;;;16.53;100.00;98521.25;7390812;19;19927;-49
2022/10/16 14:55:51;;;;;;;;;;;;;;;16.42;100.00;98524.78;7386719;19;19918;-49
2022/10/16 14:58:26;;;;;;;;;;;;;;;16.28;100.00;98526.84;7391040;19;19970;-48
2022/10/16 15:00:55;;;;;;;;;;;;;;;16.33;100.00;98524.66;7391579;19;20218;-48
2022/10/16 15:03:25;;;;;;;;;;;;;;;16.25;100.00;98527.94;7380741;19;19936;-50
2022/10/16 15:05:54;;;;;;;;;;;;;;;16.11;100.00;98529.97;7390848;19;19910;-50
2022/10/16 15:08:23;;;;;;;;;;;;;;;15.96;100.00;98536.44;7390803;19;19935;-57
2022/10/16 15:10:51;;;;;;;;;;;;;;;16.00;100.00;98530.78;7385283;19;20292;-48
2022/10/16 15:13:23;;;;;;;;;;;;;;;15.87;100.00;98523.91;7388529;19;19918;-48
2022/10/16 15:15:53;;;;;;;;;;;;;;;15.77;100.00;98531.75;7389809;19;19918;-48
2022/10/16 15:18:22;;;;;;;;;;;;;;;15.76;100.00;98535.38;7383307;19;19929;-48
2022/10/16 15:20:52;;;;;;;;;;;;;;;15.89;100.00;98530.78;7389050;19;19915;-49
2022/10/16 15:23:23;;;;;;;;;;;;;;;15.72;100.00;98538.38;7390322;19;19910;-53
2022/10/16 15:25:53;;;;;;;;;;;;;;;15.83;100.00;98547.19;7380909;19;19978;-49
2022/10/16 15:28:26;;;;;;;;;;;;;;;15.77;100.00;98536.19;7389223;19;19974;-49
2022/10/16 15:30:57;;;;;;;;;;;;;;;15.92;100.00;98540.31;7390819;19;19910;-50
2022/10/16 15:33:32;;;;;;;;;;;;;;;15.73;100.00;98540.03;7385404;19;19922;-52
2022/10/16 15:36:01;;;;;;;;;;;;;;;15.58;100.00;98542.06;7388546;19;20368;-48
2022/10/16 15:38:32;;;;;;;;;;;;;;;15.81;100.00;98541.16;7387546;19;20304;-58
2022/10/16 15:41:01;;;;;;;;;;;;;;;15.53;100.00;98548.69;7384010;19;19942;-50
2022/10/16 15:43:33;;;;;;;;;;;;;;;15.73;100.00;98540.03;7382564;19;20278;-53
2022/10/16 15:46:04;;;;;;;;;;;;;;;15.52;100.00;98545.19;7382691;19;20312;-55
2022/10/16 15:48:33;;;;;;;;;;;;;;;15.32;100.00;98547.66;7402238;19;19915;-50
2022/10/16 15:51:08;;;;;;;;;;;;;;;15.45;100.00;98551.91;7402463;19;20250;-52
2022/10/16 15:53:53;;;;;;;;;;;;;;;15.42;100.00;98557.44;7401079;19;19935;-50
2022/10/16 15:56:24;;;;;;;;;;;;;;;15.31;100.00;98559.22;7392244;19;19919;-48
2022/10/16 15:58:57;;;;;;;;;;;;;;;15.33;100.00;98558.16;7386783;19;19939;-52
2022/10/16 16:01:26;;;;;;;;;;;;;;;15.33;100.00;98554.63;7391013;19;19921;-51
2022/10/16 16:03:55;;;;;;;;;;;;;;;15.21;100.00;98558.22;7390682;19;20314;-52
2022/10/16 16:06:25;;;;;;;;;;;;;;;15.23;100.00;98566.91;7385430;19;19932;-53
2022/10/16 16:08:55;;;;;;;;;;;;;;;15.30;100.00;98570.78;7389279;19;19926;-50
2022/10/16 16:11:24;;;;;;;;;;;;;;;15.14;100.00;98575.53;7389130;19;20299;-52
2022/10/16 16:13:57;;;;;;;;;;;;;;;15.36;100.00;98588.88;7386335;19;19915;-54
2022/10/16 16:16:26;;;;;;;;;;;;;;;15.25;100.00;98589.69;7390086;19;20299;-50
2022/10/16 16:18:56;;;;;;;;;;;;;;;15.11;100.00;98599.56;7391117;19;19914;-54
2022/10/16 16:21:25;;;;;;;;;;;;;;;14.84;100.00;98605.09;7385470;19;19911;-51
2022/10/16 16:23:54;;;;;;;;;;;;;;;15.11;100.00;98599.56;7392559;19;19982;-49
2022/10/16 16:26:26;;;;;;;;;;;;;;;14.96;100.00;98608.66;7390034;19;19946;-49
2022/10/16 16:28:58;;;;;;;;;;;;;;;14.80;100.00;98613.38;7383870;19;19918;-52
2022/10/16 16:31:29;;;;;;;;;;;;;;;14.72;100.00;98611.25;7391458;19;19938;-50
2022/10/16 16:33:59;;;;;;;;;;;;;;;14.83;100.00;98621.94;7390733;19;19915;-51
2022/10/16 16:36:28;;;;;;;;;;;;;;;14.67;100.00;98626.63;7385103;19;19918;-50
2022/10/16 16:38:58;;;;;;;;;;;;;;;14.69;100.00;98621.25;7390773;19;19926;-50
2022/10/16 16:41:28;;;;;;;;;;;;;;;14.38;100.00;98627.84;7389707;19;19911;-50
2022/10/16 16:44:05;;;;;;;;;;;;;;;14.39;100.00;98627.75;7386338;19;20303;-49
2022/10/16 16:46:34;;;;;;;;;;;;;;;14.35;100.00;98626.28;7389743;19;19938;-50
2022/10/16 16:49:04;;;;;;;;;;;;;;;14.19;100.00;98628.31;7390215;19;19915;-59
2022/10/16 16:51:33;;;;;;;;;;;;;;;14.30;100.00;98632.84;7389899;19;20178;-49
2022/10/16 16:54:02;;;;;;;;;;;;;;;14.23;100.00;98634.22;7388721;19;20327;-48
2022/10/16 16:56:31;;;;;;;;;;;;;;;14.07;100.00;98639.69;7391113;19;19917;-49
2022/10/16 16:59:03;;;;;;;;;;;;;;;14.14;100.00;98638.34;7387360;19;19978;-49
2022/10/16 17:01:33;;;;;;;;;;;;;;;13.99;100.00;98644.66;7389992;19;19925;-50
2022/10/16 17:04:02;;;;;;;;;;;;;;;14.08;100.00;98643.19;7388770;19;19919;-53
2022/10/16 17:06:32;;;;;;;;;;;;;;;13.82;100.00;98652.03;7387040;19;19918;-50
2022/10/16 17:09:03;;;;;;;;;;;;;;;13.82;100.00;98646.75;7390305;19;19914;-49
2022/10/16 17:11:33;;;;;;;;;;;;;;;13.80;100.00;98651.28;7391681;19;19929;-53
2022/10/16 17:17:10;;;;;;;;;;;;;;;13.79;100.00;98662.81;7402473;19;19921;-51
2022/10/16 17:19:39;;;;;;;;;;;;;;;13.84;100.00;98666.00;7397625;19;19978;-50
2022/10/16 17:22:08;;;;;;;;;;;;;;;13.79;100.00;98666.31;7399830;19;19922;-51
2022/10/16 17:40:32;;;;;;;;;;;;;;;13.56;100.00;98688.16;7398126;19;20338;-51
2022/10/16 17:46:06;;;;;;;;;;;;;;;13.74;100.00;98700.16;7397625;19;19914;-49
2022/10/16 17:48:39;;;;;;;;;;;;;;;14.04;100.00;98702.56;7399312;19;20313;-53
2022/10/16 17:54:32;;;;;;;;;;;;;;;13.74;100.00;98704.63;7390477;19;19919;-53